sensor_id;sensor_type;location;lat;lon;timestamp;P1;durP1;ratioP1;P2;durP2;ratioP2
9306;SDS011;4691;47.612;7.610;2022-07-29T00:00:56;5.50;;;4.82;;
9306;SDS011;4691;47.612;7.610;2022-07-29T00:03:21;6.80;;;4.60;;
9306;SDS011;4691;47.612;7.610;2022-07-29T00:05:47;5.28;;;4.53;;
9306;SDS011;4691;47.612;7.610;2022-07-29T00:08:12;6.20;;;4.50;;
9306;SDS011;4691;47.612;7.610;2022-07-29T00:10:37;6.13;;;4.53;;
9306;SDS011;4691;47.612;7.610;2022-07-29T00:13:03;6.70;;;4.55;;
9306;SDS011;4691;47.612;7.610;2022-07-29T00:15:28;9.68;;;4.90;;
9306;SDS011;4691;47.612;7.610;2022-07-29T00:17:53;7.03;;;4.68;;
9306;SDS011;4691;47.612;7.610;2022-07-29T00:20:19;6.22;;;4.40;;
9306;SDS011;4691;47.612;7.610;2022-07-29T00:22:44;5.60;;;4.60;;
9306;SDS011;4691;47.612;7.610;2022-07-29T00:25:09;5.57;;;4.40;;
9306;SDS011;4691;47.612;7.610;2022-07-29T00:27:36;7.65;;;4.97;;
9306;SDS011;4691;47.612;7.610;2022-07-29T00:30:02;6.00;;;4.43;;
9306;SDS011;4691;47.612;7.610;2022-07-29T00:32:28;5.60;;;4.75;;
9306;SDS011;4691;47.612;7.610;2022-07-29T00:34:54;7.32;;;4.82;;
9306;SDS011;4691;47.612;7.610;2022-07-29T00:37:37;7.00;;;5.60;;
9306;SDS011;4691;47.612;7.610;2022-07-29T00:40:03;6.82;;;5.07;;
9306;SDS011;4691;47.612;7.610;2022-07-29T00:42:28;5.38;;;4.78;;
9306;SDS011;4691;47.612;7.610;2022-07-29T00:44:54;5.55;;;4.60;;
9306;SDS011;4691;47.612;7.610;2022-07-29T00:47:19;7.55;;;4.97;;
9306;SDS011;4691;47.612;7.610;2022-07-29T00:49:44;5.97;;;4.95;;
9306;SDS011;4691;47.612;7.610;2022-07-29T00:52:10;5.47;;;4.53;;
9306;SDS011;4691;47.612;7.610;2022-07-29T00:54:36;5.60;;;4.75;;
9306;SDS011;4691;47.612;7.610;2022-07-29T00:57:03;6.10;;;5.32;;
9306;SDS011;4691;47.612;7.610;2022-07-29T00:59:28;7.35;;;5.07;;
9306;SDS011;4691;47.612;7.610;2022-07-29T01:01:54;7.30;;;4.93;;
9306;SDS011;4691;47.612;7.610;2022-07-29T01:04:20;7.05;;;4.75;;
9306;SDS011;4691;47.612;7.610;2022-07-29T01:06:46;6.55;;;5.25;;
9306;SDS011;4691;47.612;7.610;2022-07-29T01:09:12;6.85;;;4.82;;
9306;SDS011;4691;47.612;7.610;2022-07-29T01:11:38;5.80;;;4.55;;
9306;SDS011;4691;47.612;7.610;2022-07-29T01:14:04;6.53;;;5.18;;
9306;SDS011;4691;47.612;7.610;2022-07-29T01:16:32;5.32;;;4.82;;
9306;SDS011;4691;47.612;7.610;2022-07-29T01:19:07;6.72;;;4.78;;
9306;SDS011;4691;47.612;7.610;2022-07-29T01:21:51;6.82;;;5.03;;
9306;SDS011;4691;47.612;7.610;2022-07-29T01:24:27;4.93;;;4.43;;
9306;SDS011;4691;47.612;7.610;2022-07-29T01:26:59;7.90;;;5.00;;
9306;SDS011;4691;47.612;7.610;2022-07-29T01:29:49;6.37;;;5.10;;
9306;SDS011;4691;47.612;7.610;2022-07-29T01:32:22;5.90;;;5.30;;
9306;SDS011;4691;47.612;7.610;2022-07-29T01:35:02;5.53;;;5.03;;
9306;SDS011;4691;47.612;7.610;2022-07-29T01:37:29;8.52;;;5.03;;
9306;SDS011;4691;47.612;7.610;2022-07-29T01:39:56;8.75;;;5.50;;
9306;SDS011;4691;47.612;7.610;2022-07-29T01:42:57;9.13;;;5.80;;
9306;SDS011;4691;47.612;7.610;2022-07-29T01:45:18;9.18;;;5.70;;
9306;SDS011;4691;47.612;7.610;2022-07-29T01:47:54;8.50;;;5.35;;
9306;SDS011;4691;47.612;7.610;2022-07-29T01:50:40;7.78;;;5.30;;
9306;SDS011;4691;47.612;7.610;2022-07-29T01:53:12;9.07;;;5.38;;
9306;SDS011;4691;47.612;7.610;2022-07-29T01:55:40;9.07;;;6.00;;
9306;SDS011;4691;47.612;7.610;2022-07-29T01:58:09;7.50;;;5.38;;
9306;SDS011;4691;47.612;7.610;2022-07-29T02:00:37;8.63;;;5.90;;
9306;SDS011;4691;47.612;7.610;2022-07-29T02:03:05;7.30;;;5.88;;
9306;SDS011;4691;47.612;7.610;2022-07-29T02:05:33;7.65;;;5.90;;
9306;SDS011;4691;47.612;7.610;2022-07-29T02:08:00;6.72;;;6.03;;
9306;SDS011;4691;47.612;7.610;2022-07-29T02:10:27;10.85;;;6.25;;
9306;SDS011;4691;47.612;7.610;2022-07-29T02:12:55;7.28;;;5.40;;
9306;SDS011;4691;47.612;7.610;2022-07-29T02:15:22;8.52;;;6.57;;
9306;SDS011;4691;47.612;7.610;2022-07-29T02:19:33;6.57;;;5.82;;
9306;SDS011;4691;47.612;7.610;2022-07-29T02:22:02;8.38;;;5.70;;
9306;SDS011;4691;47.612;7.610;2022-07-29T02:24:28;7.18;;;6.30;;
9306;SDS011;4691;47.612;7.610;2022-07-29T02:26:55;8.68;;;5.55;;
9306;SDS011;4691;47.612;7.610;2022-07-29T02:29:23;6.78;;;6.07;;
9306;SDS011;4691;47.612;7.610;2022-07-29T02:31:51;6.90;;;6.20;;
9306;SDS011;4691;47.612;7.610;2022-07-29T02:34:19;8.63;;;5.60;;
9306;SDS011;4691;47.612;7.610;2022-07-29T02:36:46;7.47;;;6.47;;
9306;SDS011;4691;47.612;7.610;2022-07-29T02:39:12;6.82;;;6.13;;
9306;SDS011;4691;47.612;7.610;2022-07-29T02:41:41;8.25;;;6.07;;
9306;SDS011;4691;47.612;7.610;2022-07-29T02:44:10;8.40;;;6.15;;
9306;SDS011;4691;47.612;7.610;2022-07-29T02:46:41;7.55;;;6.30;;
9306;SDS011;4691;47.612;7.610;2022-07-29T02:51:58;8.48;;;6.30;;
9306;SDS011;4691;47.612;7.610;2022-07-29T02:54:31;9.40;;;6.23;;
9306;SDS011;4691;47.612;7.610;2022-07-29T02:56:58;6.25;;;5.57;;
9306;SDS011;4691;47.612;7.610;2022-07-29T02:59:28;7.13;;;6.30;;
9306;SDS011;4691;47.612;7.610;2022-07-29T03:01:55;8.15;;;7.13;;
9306;SDS011;4691;47.612;7.610;2022-07-29T03:04:23;6.90;;;6.20;;
9306;SDS011;4691;47.612;7.610;2022-07-29T03:06:50;7.15;;;6.00;;
9306;SDS011;4691;47.612;7.610;2022-07-29T03:09:18;11.18;;;6.03;;
9306;SDS011;4691;47.612;7.610;2022-07-29T03:11:44;9.25;;;6.20;;
9306;SDS011;4691;47.612;7.610;2022-07-29T03:14:10;8.90;;;6.30;;
9306;SDS011;4691;47.612;7.610;2022-07-29T03:16:37;10.00;;;5.97;;
9306;SDS011;4691;47.612;7.610;2022-07-29T03:19:03;7.70;;;5.97;;
9306;SDS011;4691;47.612;7.610;2022-07-29T03:21:29;6.28;;;5.68;;
9306;SDS011;4691;47.612;7.610;2022-07-29T03:23:55;6.97;;;5.80;;
9306;SDS011;4691;47.612;7.610;2022-07-29T03:26:20;6.90;;;5.70;;
9306;SDS011;4691;47.612;7.610;2022-07-29T03:28:45;8.25;;;6.22;;
9306;SDS011;4691;47.612;7.610;2022-07-29T03:31:11;7.97;;;5.90;;
9306;SDS011;4691;47.612;7.610;2022-07-29T03:33:36;6.20;;;5.60;;
9306;SDS011;4691;47.612;7.610;2022-07-29T03:36:01;7.53;;;6.15;;
9306;SDS011;4691;47.612;7.610;2022-07-29T03:38:27;6.93;;;6.20;;
9306;SDS011;4691;47.612;7.610;2022-07-29T03:40:56;8.65;;;6.20;;
9306;SDS011;4691;47.612;7.610;2022-07-29T03:43:26;8.13;;;6.60;;
9306;SDS011;4691;47.612;7.610;2022-07-29T03:45:55;7.95;;;6.65;;
9306;SDS011;4691;47.612;7.610;2022-07-29T03:48:23;7.32;;;6.55;;
9306;SDS011;4691;47.612;7.610;2022-07-29T03:50:50;14.07;;;6.90;;
9306;SDS011;4691;47.612;7.610;2022-07-29T03:53:16;7.32;;;6.57;;
9306;SDS011;4691;47.612;7.610;2022-07-29T03:55:43;8.93;;;6.75;;
9306;SDS011;4691;47.612;7.610;2022-07-29T03:58:11;10.82;;;6.70;;
9306;SDS011;4691;47.612;7.610;2022-07-29T04:00:38;10.00;;;6.72;;
9306;SDS011;4691;47.612;7.610;2022-07-29T04:03:04;13.73;;;6.60;;
9306;SDS011;4691;47.612;7.610;2022-07-29T04:05:30;8.60;;;6.97;;
9306;SDS011;4691;47.612;7.610;2022-07-29T04:07:55;10.27;;;7.22;;
9306;SDS011;4691;47.612;7.610;2022-07-29T04:10:20;10.52;;;6.95;;
9306;SDS011;4691;47.612;7.610;2022-07-29T04:12:47;12.05;;;7.60;;
9306;SDS011;4691;47.612;7.610;2022-07-29T04:15:13;13.50;;;7.07;;
9306;SDS011;4691;47.612;7.610;2022-07-29T04:17:38;10.68;;;7.28;;
9306;SDS011;4691;47.612;7.610;2022-07-29T04:20:04;7.95;;;7.15;;
9306;SDS011;4691;47.612;7.610;2022-07-29T04:22:30;14.57;;;8.02;;
9306;SDS011;4691;47.612;7.610;2022-07-29T04:24:55;10.23;;;6.80;;
9306;SDS011;4691;47.612;7.610;2022-07-29T04:27:21;10.65;;;7.03;;
9306;SDS011;4691;47.612;7.610;2022-07-29T04:29:46;9.40;;;7.20;;
9306;SDS011;4691;47.612;7.610;2022-07-29T04:32:11;10.07;;;7.05;;
9306;SDS011;4691;47.612;7.610;2022-07-29T04:34:37;7.88;;;7.07;;
9306;SDS011;4691;47.612;7.610;2022-07-29T04:37:02;12.68;;;7.95;;
9306;SDS011;4691;47.612;7.610;2022-07-29T04:39:27;9.85;;;6.78;;
9306;SDS011;4691;47.612;7.610;2022-07-29T04:41:53;9.13;;;6.72;;
9306;SDS011;4691;47.612;7.610;2022-07-29T04:44:18;11.00;;;7.03;;
9306;SDS011;4691;47.612;7.610;2022-07-29T04:46:43;9.57;;;6.20;;
9306;SDS011;4691;47.612;7.610;2022-07-29T04:49:09;8.63;;;6.20;;
9306;SDS011;4691;47.612;7.610;2022-07-29T04:51:34;7.40;;;6.55;;
9306;SDS011;4691;47.612;7.610;2022-07-29T04:54:00;8.13;;;6.15;;
9306;SDS011;4691;47.612;7.610;2022-07-29T04:56:25;7.30;;;6.25;;
9306;SDS011;4691;47.612;7.610;2022-07-29T04:58:51;6.85;;;6.25;;
9306;SDS011;4691;47.612;7.610;2022-07-29T05:01:17;10.13;;;7.10;;
9306;SDS011;4691;47.612;7.610;2022-07-29T05:03:42;8.43;;;6.18;;
9306;SDS011;4691;47.612;7.610;2022-07-29T05:06:07;7.28;;;6.30;;
9306;SDS011;4691;47.612;7.610;2022-07-29T05:08:33;8.77;;;6.93;;
9306;SDS011;4691;47.612;7.610;2022-07-29T05:10:58;12.45;;;7.05;;
9306;SDS011;4691;47.612;7.610;2022-07-29T05:13:23;11.27;;;7.18;;
9306;SDS011;4691;47.612;7.610;2022-07-29T05:15:49;11.73;;;7.07;;
9306;SDS011;4691;47.612;7.610;2022-07-29T05:18:14;13.48;;;7.30;;
9306;SDS011;4691;47.612;7.610;2022-07-29T05:20:40;9.00;;;7.10;;
9306;SDS011;4691;47.612;7.610;2022-07-29T05:23:05;10.48;;;7.57;;
9306;SDS011;4691;47.612;7.610;2022-07-29T05:25:31;9.38;;;7.05;;
9306;SDS011;4691;47.612;7.610;2022-07-29T05:27:56;11.35;;;7.20;;
9306;SDS011;4691;47.612;7.610;2022-07-29T05:30:25;14.43;;;7.55;;
9306;SDS011;4691;47.612;7.610;2022-07-29T05:32:51;12.07;;;7.38;;
9306;SDS011;4691;47.612;7.610;2022-07-29T05:35:16;9.02;;;7.13;;
9306;SDS011;4691;47.612;7.610;2022-07-29T05:37:42;7.22;;;6.53;;
9306;SDS011;4691;47.612;7.610;2022-07-29T05:40:08;8.15;;;6.90;;
9306;SDS011;4691;47.612;7.610;2022-07-29T05:42:33;10.30;;;6.97;;
9306;SDS011;4691;47.612;7.610;2022-07-29T05:44:59;7.78;;;6.97;;
9306;SDS011;4691;47.612;7.610;2022-07-29T05:47:24;7.15;;;6.40;;
9306;SDS011;4691;47.612;7.610;2022-07-29T05:49:50;7.72;;;6.93;;
9306;SDS011;4691;47.612;7.610;2022-07-29T05:52:16;8.25;;;7.47;;
9306;SDS011;4691;47.612;7.610;2022-07-29T05:54:42;9.60;;;8.07;;
9306;SDS011;4691;47.612;7.610;2022-07-29T05:57:07;9.25;;;7.40;;
9306;SDS011;4691;47.612;7.610;2022-07-29T05:59:36;8.75;;;7.55;;
9306;SDS011;4691;47.612;7.610;2022-07-29T06:02:02;9.00;;;7.63;;
9306;SDS011;4691;47.612;7.610;2022-07-29T06:04:29;10.43;;;7.82;;
9306;SDS011;4691;47.612;7.610;2022-07-29T06:06:55;9.65;;;8.13;;
9306;SDS011;4691;47.612;7.610;2022-07-29T06:09:20;8.50;;;7.55;;
9306;SDS011;4691;47.612;7.610;2022-07-29T06:11:47;8.68;;;7.40;;
9306;SDS011;4691;47.612;7.610;2022-07-29T06:14:13;9.32;;;7.43;;
9306;SDS011;4691;47.612;7.610;2022-07-29T06:16:38;7.68;;;6.97;;
9306;SDS011;4691;47.612;7.610;2022-07-29T06:19:04;10.88;;;7.63;;
9306;SDS011;4691;47.612;7.610;2022-07-29T06:21:29;9.23;;;7.00;;
9306;SDS011;4691;47.612;7.610;2022-07-29T06:23:54;9.52;;;6.93;;
9306;SDS011;4691;47.612;7.610;2022-07-29T06:26:20;7.93;;;6.93;;
9306;SDS011;4691;47.612;7.610;2022-07-29T06:28:45;9.15;;;6.88;;
9306;SDS011;4691;47.612;7.610;2022-07-29T06:31:10;9.60;;;6.80;;
9306;SDS011;4691;47.612;7.610;2022-07-29T06:33:36;8.05;;;6.75;;
9306;SDS011;4691;47.612;7.610;2022-07-29T06:36:03;8.20;;;6.53;;
9306;SDS011;4691;47.612;7.610;2022-07-29T06:38:29;8.68;;;7.10;;
9306;SDS011;4691;47.612;7.610;2022-07-29T06:40:54;9.43;;;6.85;;
9306;SDS011;4691;47.612;7.610;2022-07-29T06:43:31;9.10;;;6.47;;
9306;SDS011;4691;47.612;7.610;2022-07-29T06:45:59;8.90;;;6.25;;
9306;SDS011;4691;47.612;7.610;2022-07-29T06:48:29;7.85;;;7.05;;
9306;SDS011;4691;47.612;7.610;2022-07-29T06:50:55;12.50;;;6.93;;
9306;SDS011;4691;47.612;7.610;2022-07-29T06:53:20;11.32;;;6.82;;
9306;SDS011;4691;47.612;7.610;2022-07-29T06:55:45;11.48;;;6.72;;
9306;SDS011;4691;47.612;7.610;2022-07-29T06:58:11;10.52;;;6.55;;
9306;SDS011;4691;47.612;7.610;2022-07-29T07:00:36;8.55;;;6.85;;
9306;SDS011;4691;47.612;7.610;2022-07-29T07:03:02;10.52;;;7.03;;
9306;SDS011;4691;47.612;7.610;2022-07-29T07:05:27;10.13;;;7.07;;
9306;SDS011;4691;47.612;7.610;2022-07-29T07:07:52;10.30;;;7.70;;
9306;SDS011;4691;47.612;7.610;2022-07-29T07:10:18;8.57;;;7.50;;
9306;SDS011;4691;47.612;7.610;2022-07-29T07:12:43;11.35;;;7.38;;
9306;SDS011;4691;47.612;7.610;2022-07-29T07:15:09;8.90;;;7.45;;
9306;SDS011;4691;47.612;7.610;2022-07-29T07:17:34;10.57;;;7.70;;
9306;SDS011;4691;47.612;7.610;2022-07-29T07:19:59;8.52;;;7.70;;
9306;SDS011;4691;47.612;7.610;2022-07-29T07:22:25;10.88;;;7.85;;
9306;SDS011;4691;47.612;7.610;2022-07-29T07:24:50;10.77;;;8.27;;
9306;SDS011;4691;47.612;7.610;2022-07-29T07:27:15;8.82;;;7.75;;
9306;SDS011;4691;47.612;7.610;2022-07-29T07:29:41;9.95;;;6.65;;
9306;SDS011;4691;47.612;7.610;2022-07-29T07:32:06;8.43;;;7.60;;
9306;SDS011;4691;47.612;7.610;2022-07-29T07:34:32;8.05;;;7.25;;
9306;SDS011;4691;47.612;7.610;2022-07-29T07:36:57;12.40;;;7.80;;
9306;SDS011;4691;47.612;7.610;2022-07-29T07:39:23;10.57;;;7.03;;
9306;SDS011;4691;47.612;7.610;2022-07-29T07:41:48;11.13;;;7.40;;
9306;SDS011;4691;47.612;7.610;2022-07-29T07:44:13;11.10;;;8.43;;
9306;SDS011;4691;47.612;7.610;2022-07-29T07:46:38;12.38;;;7.95;;
9306;SDS011;4691;47.612;7.610;2022-07-29T07:49:04;10.13;;;8.40;;
9306;SDS011;4691;47.612;7.610;2022-07-29T07:51:29;13.32;;;8.00;;
9306;SDS011;4691;47.612;7.610;2022-07-29T07:53:54;9.27;;;8.23;;
9306;SDS011;4691;47.612;7.610;2022-07-29T07:56:20;9.82;;;7.65;;
9306;SDS011;4691;47.612;7.610;2022-07-29T07:58:45;10.50;;;8.25;;
9306;SDS011;4691;47.612;7.610;2022-07-29T08:01:10;9.27;;;8.40;;
9306;SDS011;4691;47.612;7.610;2022-07-29T08:03:36;10.93;;;8.45;;
9306;SDS011;4691;47.612;7.610;2022-07-29T08:06:02;11.10;;;7.80;;
9306;SDS011;4691;47.612;7.610;2022-07-29T08:08:29;10.43;;;8.57;;
9306;SDS011;4691;47.612;7.610;2022-07-29T08:10:54;14.73;;;7.63;;
9306;SDS011;4691;47.612;7.610;2022-07-29T08:15:50;8.43;;;7.15;;
9306;SDS011;4691;47.612;7.610;2022-07-29T08:18:36;9.48;;;7.65;;
9306;SDS011;4691;47.612;7.610;2022-07-29T08:21:01;7.75;;;7.05;;
9306;SDS011;4691;47.612;7.610;2022-07-29T08:23:27;8.57;;;7.05;;
9306;SDS011;4691;47.612;7.610;2022-07-29T08:25:59;10.25;;;6.63;;
9306;SDS011;4691;47.612;7.610;2022-07-29T08:28:25;8.43;;;6.22;;
9306;SDS011;4691;47.612;7.610;2022-07-29T08:30:50;8.50;;;6.13;;
9306;SDS011;4691;47.612;7.610;2022-07-29T08:33:16;6.10;;;5.50;;
9306;SDS011;4691;47.612;7.610;2022-07-29T08:35:41;6.97;;;6.13;;
9306;SDS011;4691;47.612;7.610;2022-07-29T08:38:06;8.32;;;5.55;;
9306;SDS011;4691;47.612;7.610;2022-07-29T08:40:32;10.13;;;5.60;;
9306;SDS011;4691;47.612;7.610;2022-07-29T08:42:57;8.05;;;5.18;;
9306;SDS011;4691;47.612;7.610;2022-07-29T08:45:23;6.38;;;5.00;;
9306;SDS011;4691;47.612;7.610;2022-07-29T08:47:48;7.38;;;5.03;;
9306;SDS011;4691;47.612;7.610;2022-07-29T08:50:13;7.72;;;5.20;;
9306;SDS011;4691;47.612;7.610;2022-07-29T08:52:40;6.78;;;5.22;;
9306;SDS011;4691;47.612;7.610;2022-07-29T08:55:07;6.88;;;5.40;;
9306;SDS011;4691;47.612;7.610;2022-07-29T08:57:34;7.75;;;5.30;;
9306;SDS011;4691;47.612;7.610;2022-07-29T09:00:01;8.15;;;5.25;;
9306;SDS011;4691;47.612;7.610;2022-07-29T09:02:29;5.80;;;5.15;;
9306;SDS011;4691;47.612;7.610;2022-07-29T09:05:07;6.40;;;5.22;;
9306;SDS011;4691;47.612;7.610;2022-07-29T09:07:32;8.45;;;5.35;;
9306;SDS011;4691;47.612;7.610;2022-07-29T09:09:58;7.38;;;5.35;;
9306;SDS011;4691;47.612;7.610;2022-07-29T09:12:24;6.55;;;5.38;;
9306;SDS011;4691;47.612;7.610;2022-07-29T09:14:50;7.68;;;5.15;;
9306;SDS011;4691;47.612;7.610;2022-07-29T09:17:16;6.43;;;5.40;;
9306;SDS011;4691;47.612;7.610;2022-07-29T09:19:42;7.75;;;4.97;;
9306;SDS011;4691;47.612;7.610;2022-07-29T09:22:08;4.85;;;4.35;;
9306;SDS011;4691;47.612;7.610;2022-07-29T09:24:44;7.78;;;4.80;;
9306;SDS011;4691;47.612;7.610;2022-07-29T09:27:22;7.15;;;5.13;;
9306;SDS011;4691;47.612;7.610;2022-07-29T09:30:07;5.90;;;4.00;;
9306;SDS011;4691;47.612;7.610;2022-07-29T09:32:56;5.35;;;4.57;;
9306;SDS011;4691;47.612;7.610;2022-07-29T09:35:25;9.57;;;4.53;;
9306;SDS011;4691;47.612;7.610;2022-07-29T09:37:51;7.03;;;4.28;;
9306;SDS011;4691;47.612;7.610;2022-07-29T09:40:18;7.35;;;4.32;;
9306;SDS011;4691;47.612;7.610;2022-07-29T09:42:52;7.43;;;3.75;;
9306;SDS011;4691;47.612;7.610;2022-07-29T09:45:32;7.22;;;4.25;;
9306;SDS011;4691;47.612;7.610;2022-07-29T09:47:59;7.63;;;4.20;;
9306;SDS011;4691;47.612;7.610;2022-07-29T09:50:41;6.53;;;3.53;;
9306;SDS011;4691;47.612;7.610;2022-07-29T09:53:08;4.30;;;3.22;;
9306;SDS011;4691;47.612;7.610;2022-07-29T09:55:51;6.47;;;3.40;;
9306;SDS011;4691;47.612;7.610;2022-07-29T10:00:42;8.00;;;3.50;;
9306;SDS011;4691;47.612;7.610;2022-07-29T10:03:08;5.82;;;3.65;;
9306;SDS011;4691;47.612;7.610;2022-07-29T10:05:33;6.07;;;3.78;;
9306;SDS011;4691;47.612;7.610;2022-07-29T10:07:59;7.30;;;3.70;;
9306;SDS011;4691;47.612;7.610;2022-07-29T10:10:28;7.68;;;3.60;;
9306;SDS011;4691;47.612;7.610;2022-07-29T10:12:56;5.30;;;3.00;;
9306;SDS011;4691;47.612;7.610;2022-07-29T10:15:25;6.40;;;3.55;;
9306;SDS011;4691;47.612;7.610;2022-07-29T10:17:52;12.73;;;3.92;;
9306;SDS011;4691;47.612;7.610;2022-07-29T10:20:19;7.13;;;3.75;;
9306;SDS011;4691;47.612;7.610;2022-07-29T10:22:49;7.18;;;3.60;;
9306;SDS011;4691;47.612;7.610;2022-07-29T10:25:15;5.50;;;3.30;;
9306;SDS011;4691;47.612;7.610;2022-07-29T10:27:42;3.72;;;3.30;;
9306;SDS011;4691;47.612;7.610;2022-07-29T10:30:10;5.50;;;3.33;;
9306;SDS011;4691;47.612;7.610;2022-07-29T10:41:19;4.30;;;3.20;;
9306;SDS011;4691;47.612;7.610;2022-07-29T10:44:00;5.40;;;3.38;;
9306;SDS011;4691;47.612;7.610;2022-07-29T10:46:38;6.38;;;3.38;;
9306;SDS011;4691;47.612;7.610;2022-07-29T10:49:24;3.55;;;2.85;;
9306;SDS011;4691;47.612;7.610;2022-07-29T10:51:55;3.72;;;3.10;;
9306;SDS011;4691;47.612;7.610;2022-07-29T10:57:24;4.28;;;3.10;;
9306;SDS011;4691;47.612;7.610;2022-07-29T11:07:22;3.30;;;3.00;;
9306;SDS011;4691;47.612;7.610;2022-07-29T11:10:19;5.03;;;3.08;;
9306;SDS011;4691;47.612;7.610;2022-07-29T11:15:08;5.93;;;3.25;;
9306;SDS011;4691;47.612;7.610;2022-07-29T11:23:23;4.45;;;3.08;;
9306;SDS011;4691;47.612;7.610;2022-07-29T11:28:34;4.72;;;3.35;;
9306;SDS011;4691;47.612;7.610;2022-07-29T11:31:06;8.20;;;3.15;;
9306;SDS011;4691;47.612;7.610;2022-07-29T11:33:34;5.40;;;3.30;;
9306;SDS011;4691;47.612;7.610;2022-07-29T11:36:10;4.53;;;3.08;;
9306;SDS011;4691;47.612;7.610;2022-07-29T11:38:37;7.78;;;2.95;;
9306;SDS011;4691;47.612;7.610;2022-07-29T11:43:52;7.53;;;2.75;;
9306;SDS011;4691;47.612;7.610;2022-07-29T11:49:24;9.13;;;3.50;;
9306;SDS011;4691;47.612;7.610;2022-07-29T11:51:53;4.60;;;3.10;;
9306;SDS011;4691;47.612;7.610;2022-07-29T11:54:24;7.07;;;3.40;;
9306;SDS011;4691;47.612;7.610;2022-07-29T11:56:55;8.13;;;3.50;;
9306;SDS011;4691;47.612;7.610;2022-07-29T11:59:22;6.68;;;3.17;;
9306;SDS011;4691;47.612;7.610;2022-07-29T12:01:55;4.20;;;3.20;;
9306;SDS011;4691;47.612;7.610;2022-07-29T12:04:22;6.90;;;3.60;;
9306;SDS011;4691;47.612;7.610;2022-07-29T12:06:55;8.85;;;3.80;;
9306;SDS011;4691;47.612;7.610;2022-07-29T12:09:21;6.57;;;3.95;;
9306;SDS011;4691;47.612;7.610;2022-07-29T12:11:47;7.22;;;4.00;;
9306;SDS011;4691;47.612;7.610;2022-07-29T12:14:29;7.90;;;4.10;;
9306;SDS011;4691;47.612;7.610;2022-07-29T12:16:55;8.38;;;4.07;;
9306;SDS011;4691;47.612;7.610;2022-07-29T12:19:21;7.13;;;4.07;;
9306;SDS011;4691;47.612;7.610;2022-07-29T12:21:47;4.85;;;3.80;;
9306;SDS011;4691;47.612;7.610;2022-07-29T12:24:17;7.30;;;4.88;;
9306;SDS011;4691;47.612;7.610;2022-07-29T12:26:54;5.68;;;3.55;;
9306;SDS011;4691;47.612;7.610;2022-07-29T12:29:21;5.20;;;3.72;;
9306;SDS011;4691;47.612;7.610;2022-07-29T12:31:50;7.85;;;3.55;;
9306;SDS011;4691;47.612;7.610;2022-07-29T12:34:19;6.70;;;4.00;;
9306;SDS011;4691;47.612;7.610;2022-07-29T12:36:45;6.65;;;3.92;;
9306;SDS011;4691;47.612;7.610;2022-07-29T12:39:11;5.25;;;3.30;;
9306;SDS011;4691;47.612;7.610;2022-07-29T12:41:37;8.32;;;3.92;;
9306;SDS011;4691;47.612;7.610;2022-07-29T12:44:03;5.43;;;3.30;;
9306;SDS011;4691;47.612;7.610;2022-07-29T12:46:29;3.58;;;3.20;;
9306;SDS011;4691;47.612;7.610;2022-07-29T12:48:54;6.68;;;3.55;;
9306;SDS011;4691;47.612;7.610;2022-07-29T12:54:08;6.90;;;3.53;;
9306;SDS011;4691;47.612;7.610;2022-07-29T12:56:36;7.63;;;3.90;;
9306;SDS011;4691;47.612;7.610;2022-07-29T12:59:15;9.02;;;3.65;;
9306;SDS011;4691;47.612;7.610;2022-07-29T13:01:45;6.85;;;4.00;;
9306;SDS011;4691;47.612;7.610;2022-07-29T13:04:30;5.30;;;2.95;;
9306;SDS011;4691;47.612;7.610;2022-07-29T13:07:00;5.68;;;3.58;;
9306;SDS011;4691;47.612;7.610;2022-07-29T13:09:37;6.22;;;3.13;;
9306;SDS011;4691;47.612;7.610;2022-07-29T13:12:07;4.63;;;3.30;;
9306;SDS011;4691;47.612;7.610;2022-07-29T13:14:36;5.93;;;3.53;;
9306;SDS011;4691;47.612;7.610;2022-07-29T13:17:07;6.30;;;3.00;;
9306;SDS011;4691;47.612;7.610;2022-07-29T13:19:38;5.55;;;3.10;;
9306;SDS011;4691;47.612;7.610;2022-07-29T13:22:08;9.43;;;3.20;;
9306;SDS011;4691;47.612;7.610;2022-07-29T13:24:44;5.45;;;3.13;;
9306;SDS011;4691;47.612;7.610;2022-07-29T13:27:19;4.38;;;2.95;;
9306;SDS011;4691;47.612;7.610;2022-07-29T13:29:47;7.55;;;2.88;;
9306;SDS011;4691;47.612;7.610;2022-07-29T13:32:16;4.95;;;2.60;;
9306;SDS011;4691;47.612;7.610;2022-07-29T13:34:41;5.18;;;2.60;;
9306;SDS011;4691;47.612;7.610;2022-07-29T13:37:07;3.40;;;2.60;;
9306;SDS011;4691;47.612;7.610;2022-07-29T13:39:32;4.40;;;2.30;;
9306;SDS011;4691;47.612;7.610;2022-07-29T13:41:58;5.10;;;2.60;;
9306;SDS011;4691;47.612;7.610;2022-07-29T13:44:23;2.95;;;2.17;;
9306;SDS011;4691;47.612;7.610;2022-07-29T13:46:48;5.47;;;2.40;;
9306;SDS011;4691;47.612;7.610;2022-07-29T13:49:14;5.07;;;2.30;;
9306;SDS011;4691;47.612;7.610;2022-07-29T13:51:40;5.35;;;2.58;;
9306;SDS011;4691;47.612;7.610;2022-07-29T13:54:05;5.32;;;2.40;;
9306;SDS011;4691;47.612;7.610;2022-07-29T13:56:30;4.28;;;2.42;;
9306;SDS011;4691;47.612;7.610;2022-07-29T13:58:56;5.10;;;2.50;;
9306;SDS011;4691;47.612;7.610;2022-07-29T14:01:22;5.55;;;2.08;;
9306;SDS011;4691;47.612;7.610;2022-07-29T14:03:52;6.32;;;2.38;;
9306;SDS011;4691;47.612;7.610;2022-07-29T14:06:17;3.38;;;2.30;;
9306;SDS011;4691;47.612;7.610;2022-07-29T14:08:42;3.70;;;2.10;;
9306;SDS011;4691;47.612;7.610;2022-07-29T14:11:07;4.50;;;2.30;;
9306;SDS011;4691;47.612;7.610;2022-07-29T14:13:33;4.78;;;2.25;;
9306;SDS011;4691;47.612;7.610;2022-07-29T14:15:58;3.03;;;2.40;;
9306;SDS011;4691;47.612;7.610;2022-07-29T14:18:24;6.45;;;2.28;;
9306;SDS011;4691;47.612;7.610;2022-07-29T14:20:49;3.33;;;2.22;;
9306;SDS011;4691;47.612;7.610;2022-07-29T14:23:15;2.95;;;2.15;;
9306;SDS011;4691;47.612;7.610;2022-07-29T14:25:41;3.05;;;2.33;;
9306;SDS011;4691;47.612;7.610;2022-07-29T14:28:06;6.80;;;2.70;;
9306;SDS011;4691;47.612;7.610;2022-07-29T14:30:32;5.03;;;2.40;;
9306;SDS011;4691;47.612;7.610;2022-07-29T14:32:57;4.82;;;2.38;;
9306;SDS011;4691;47.612;7.610;2022-07-29T14:35:22;5.78;;;2.53;;
9306;SDS011;4691;47.612;7.610;2022-07-29T14:37:47;6.10;;;2.30;;
9306;SDS011;4691;47.612;7.610;2022-07-29T14:40:13;5.18;;;2.60;;
9306;SDS011;4691;47.612;7.610;2022-07-29T14:42:38;4.47;;;2.28;;
9306;SDS011;4691;47.612;7.610;2022-07-29T14:45:04;4.20;;;2.30;;
9306;SDS011;4691;47.612;7.610;2022-07-29T14:47:31;7.88;;;2.88;;
9306;SDS011;4691;47.612;7.610;2022-07-29T14:49:57;2.95;;;2.20;;
9306;SDS011;4691;47.612;7.610;2022-07-29T14:52:22;7.85;;;2.50;;
9306;SDS011;4691;47.612;7.610;2022-07-29T14:54:47;4.40;;;2.50;;
9306;SDS011;4691;47.612;7.610;2022-07-29T14:57:13;8.20;;;2.70;;
9306;SDS011;4691;47.612;7.610;2022-07-29T14:59:38;8.70;;;2.30;;
9306;SDS011;4691;47.612;7.610;2022-07-29T15:02:04;6.65;;;2.53;;
9306;SDS011;4691;47.612;7.610;2022-07-29T15:04:29;7.40;;;2.60;;
9306;SDS011;4691;47.612;7.610;2022-07-29T15:06:55;6.43;;;2.65;;
9306;SDS011;4691;47.612;7.610;2022-07-29T15:09:20;8.05;;;3.08;;
9306;SDS011;4691;47.612;7.610;2022-07-29T15:11:45;4.13;;;2.80;;
9306;SDS011;4691;47.612;7.610;2022-07-29T15:14:11;5.63;;;2.50;;
9306;SDS011;4691;47.612;7.610;2022-07-29T15:16:36;5.30;;;2.35;;
9306;SDS011;4691;47.612;7.610;2022-07-29T15:19:03;5.65;;;2.40;;
9306;SDS011;4691;47.612;7.610;2022-07-29T15:21:29;5.38;;;2.40;;
9306;SDS011;4691;47.612;7.610;2022-07-29T15:23:55;5.93;;;2.63;;
9306;SDS011;4691;47.612;7.610;2022-07-29T15:26:20;2.97;;;2.22;;
9306;SDS011;4691;47.612;7.610;2022-07-29T15:28:46;5.53;;;2.17;;
9306;SDS011;4691;47.612;7.610;2022-07-29T15:31:11;4.53;;;2.00;;
9306;SDS011;4691;47.612;7.610;2022-07-29T15:33:37;3.90;;;2.30;;
9306;SDS011;4691;47.612;7.610;2022-07-29T15:36:02;4.85;;;2.40;;
9306;SDS011;4691;47.612;7.610;2022-07-29T15:38:29;3.67;;;2.72;;
9306;SDS011;4691;47.612;7.610;2022-07-29T15:40:55;5.50;;;2.50;;
9306;SDS011;4691;47.612;7.610;2022-07-29T15:43:23;4.18;;;2.50;;
9306;SDS011;4691;47.612;7.610;2022-07-29T15:45:48;4.32;;;2.92;;
9306;SDS011;4691;47.612;7.610;2022-07-29T15:48:32;5.13;;;2.55;;
9306;SDS011;4691;47.612;7.610;2022-07-29T15:50:58;3.65;;;2.10;;
9306;SDS011;4691;47.612;7.610;2022-07-29T15:53:24;4.07;;;2.10;;
9306;SDS011;4691;47.612;7.610;2022-07-29T15:55:50;3.28;;;2.15;;
9306;SDS011;4691;47.612;7.610;2022-07-29T15:58:16;4.13;;;2.05;;
9306;SDS011;4691;47.612;7.610;2022-07-29T16:00:41;10.38;;;2.30;;
9306;SDS011;4691;47.612;7.610;2022-07-29T16:03:07;3.53;;;2.10;;